createdAt,value
2019-03-26T00:01:41.021Z,0.80
2019-03-26T00:04:09.768Z,1.23
2019-03-26T00:06:38.554Z,1.13
2019-03-26T00:09:08.842Z,1.33
2019-03-26T00:11:37.680Z,1.40
2019-03-26T00:14:06.406Z,1.87
2019-03-26T00:16:35.214Z,1.27
2019-03-26T00:19:03.966Z,1.20
2019-03-26T00:21:32.683Z,0.70
2019-03-26T00:24:01.465Z,0.80
2019-03-26T00:26:30.225Z,1.20
2019-03-26T00:28:58.950Z,1.10
2019-03-26T00:31:27.673Z,0.90
2019-03-26T00:33:56.423Z,0.93
2019-03-26T00:36:25.129Z,1.40
2019-03-26T00:38:53.850Z,1.30
2019-03-26T00:41:22.712Z,0.67
2019-03-26T00:43:51.428Z,1.47
2019-03-26T00:46:20.152Z,0.70
2019-03-26T00:48:48.921Z,1.40
2019-03-26T00:51:17.639Z,1.17
2019-03-26T00:53:46.371Z,0.73
2019-03-26T00:56:15.110Z,0.60
2019-03-26T00:58:43.835Z,1.03
2019-03-26T01:01:12.564Z,0.60
2019-03-26T01:03:41.305Z,0.90
2019-03-26T01:06:10.029Z,0.90
2019-03-26T01:08:38.789Z,0.80
2019-03-26T01:11:07.539Z,0.83
2019-03-26T01:13:36.258Z,1.17
2019-03-26T01:16:05.029Z,1.10
2019-03-26T01:18:33.745Z,1.20
2019-03-26T01:21:02.542Z,0.60
2019-03-26T01:23:31.287Z,1.10
2019-03-26T01:26:00.003Z,1.00
2019-03-26T01:28:28.833Z,0.90
2019-03-26T01:30:57.652Z,0.83
2019-03-26T01:33:26.397Z,0.80
2019-03-26T01:35:55.110Z,1.10
2019-03-26T01:38:23.862Z,0.80
2019-03-26T01:40:52.585Z,0.30
2019-03-26T01:43:21.297Z,0.47
2019-03-26T01:45:50.045Z,0.90
2019-03-26T01:48:18.765Z,0.87
2019-03-26T01:50:47.580Z,0.30
2019-03-26T01:53:16.329Z,0.57
2019-03-26T01:55:45.054Z,0.47
2019-03-26T01:58:13.875Z,0.97
2019-03-26T02:00:42.617Z,0.73
2019-03-26T02:03:11.338Z,1.20
2019-03-26T02:05:40.062Z,1.17
2019-03-26T02:08:08.805Z,1.17
2019-03-26T02:10:37.534Z,0.60
2019-03-26T02:13:06.294Z,0.90
2019-03-26T02:15:35.233Z,0.93
2019-03-26T02:18:05.423Z,1.73
2019-03-26T02:20:34.191Z,0.63
2019-03-26T02:23:03.638Z,0.70
2019-03-26T02:25:32.389Z,1.03
2019-03-26T02:28:01.119Z,1.53
2019-03-26T02:30:30.327Z,0.90
2019-03-26T02:32:59.463Z,0.70
2019-03-26T02:35:28.176Z,0.50
2019-03-26T02:37:56.941Z,0.73
2019-03-26T02:40:25.650Z,1.00
2019-03-26T02:42:54.376Z,0.60
2019-03-26T02:45:23.134Z,0.40
2019-03-26T02:47:51.862Z,0.40
2019-03-26T02:50:20.582Z,0.50
2019-03-26T02:52:49.332Z,0.63
2019-03-26T02:55:18.053Z,0.50
2019-03-26T02:57:46.826Z,0.60
2019-03-26T03:00:15.769Z,0.50
2019-03-26T03:02:44.491Z,0.50
2019-03-26T03:05:13.307Z,0.50
2019-03-26T03:07:42.052Z,0.50
2019-03-26T03:10:11.546Z,0.60
2019-03-26T03:12:40.268Z,0.63
2019-03-26T03:15:09.214Z,1.00
2019-03-26T03:17:37.946Z,1.00
2019-03-26T03:20:06.764Z,0.90
2019-03-26T03:22:35.515Z,0.50
2019-03-26T03:25:05.199Z,0.80
2019-03-26T03:27:33.934Z,0.70
2019-03-26T03:30:02.857Z,0.40
2019-03-26T03:32:31.600Z,0.83
2019-03-26T03:35:00.885Z,0.60
2019-03-26T03:37:29.754Z,0.53
2019-03-26T03:39:58.466Z,0.70
2019-03-26T03:42:27.335Z,0.90
2019-03-26T03:44:56.046Z,0.67
2019-03-26T03:47:27.702Z,0.50
2019-03-26T03:49:59.113Z,0.30
2019-03-26T03:52:31.112Z,0.60
2019-03-26T03:55:00.571Z,0.83
2019-03-26T03:57:31.737Z,0.40
2019-03-26T04:00:01.481Z,0.50
2019-03-26T04:02:30.204Z,0.77
2019-03-26T04:04:58.991Z,0.50
2019-03-26T04:07:27.717Z,0.50
2019-03-26T04:09:56.438Z,0.40
2019-03-26T04:12:25.267Z,1.00
2019-03-26T04:14:53.987Z,0.53
2019-03-26T04:17:22.715Z,0.77
2019-03-26T04:19:51.456Z,0.40
2019-03-26T04:22:20.179Z,0.63
2019-03-26T04:24:48.953Z,0.40
2019-03-26T04:27:17.693Z,0.40
2019-03-26T04:29:46.416Z,0.50
2019-03-26T04:32:15.143Z,0.50
2019-03-26T04:34:43.888Z,0.43
2019-03-26T04:37:12.604Z,0.50
2019-03-26T04:39:41.322Z,0.30
2019-03-26T04:42:10.065Z,0.50
2019-03-26T04:44:38.789Z,0.80
2019-03-26T04:47:07.515Z,0.70
2019-03-26T04:49:36.251Z,0.50
2019-03-26T04:52:04.965Z,0.47
2019-03-26T04:54:33.687Z,0.30
2019-03-26T04:57:02.431Z,0.50
2019-03-26T04:59:31.215Z,0.50
2019-03-26T05:02:00.052Z,0.50
2019-03-26T05:04:28.785Z,0.20
2019-03-26T05:06:57.505Z,0.30
2019-03-26T05:09:26.230Z,0.33
2019-03-26T05:11:54.973Z,0.30
2019-03-26T05:14:23.705Z,0.80
2019-03-26T05:16:52.426Z,0.57
2019-03-26T05:19:21.167Z,0.47
2019-03-26T05:21:49.898Z,0.60
2019-03-26T05:24:18.623Z,0.50
2019-03-26T05:26:47.361Z,0.50
2019-03-26T05:29:16.085Z,0.80
2019-03-26T05:31:44.829Z,0.60
2019-03-26T05:34:13.566Z,0.40
2019-03-26T05:36:51.172Z,0.30
2019-03-26T05:39:12.660Z,0.40
2019-03-26T05:41:41.505Z,0.43
2019-03-26T05:44:10.257Z,0.50
2019-03-26T05:46:39.042Z,0.40
2019-03-26T05:49:07.793Z,0.73
2019-03-26T05:51:36.509Z,0.73
2019-03-26T05:54:05.234Z,0.50
2019-03-26T05:56:33.982Z,0.60
2019-03-26T05:59:02.698Z,0.90
2019-03-26T06:01:31.485Z,0.90
2019-03-26T06:04:00.234Z,0.50
2019-03-26T06:06:28.962Z,0.57
2019-03-26T06:08:57.728Z,0.60
2019-03-26T06:11:26.474Z,0.67
2019-03-26T06:13:56.956Z,0.47
2019-03-26T06:16:37.803Z,0.50
2019-03-26T06:18:56.024Z,0.30
2019-03-26T06:21:24.837Z,0.50
2019-03-26T06:23:53.941Z,1.00
2019-03-26T06:26:22.859Z,0.40
2019-03-26T06:28:51.581Z,0.20
2019-03-26T06:31:20.394Z,1.10
2019-03-26T06:33:49.142Z,0.40
2019-03-26T06:36:17.857Z,0.50
2019-03-26T06:38:46.577Z,0.93
2019-03-26T06:41:15.339Z,0.57
2019-03-26T06:43:44.136Z,0.40
2019-03-26T06:46:12.845Z,0.50
2019-03-26T06:48:41.639Z,1.07
2019-03-26T06:51:10.415Z,0.43
2019-03-26T06:53:39.134Z,0.40
2019-03-26T06:56:07.873Z,0.40
2019-03-26T06:58:36.601Z,0.83
2019-03-26T07:01:05.417Z,0.50
2019-03-26T07:03:34.245Z,0.33
2019-03-26T07:06:02.964Z,0.57
2019-03-26T07:08:31.698Z,0.50
2019-03-26T07:11:00.445Z,0.90
2019-03-26T07:13:29.183Z,0.40
2019-03-26T07:15:57.901Z,0.33
2019-03-26T07:18:26.660Z,0.50
2019-03-26T07:20:55.381Z,0.20
2019-03-26T07:23:24.096Z,0.30
2019-03-26T07:25:52.847Z,0.70
2019-03-26T07:28:21.589Z,0.60
2019-03-26T07:30:50.309Z,0.30
2019-03-26T07:33:19.025Z,0.30
2019-03-26T07:35:47.862Z,0.43
2019-03-26T07:38:16.576Z,0.40
2019-03-26T07:40:45.298Z,0.50
2019-03-26T07:43:14.149Z,0.40
2019-03-26T07:45:42.870Z,0.47
2019-03-26T07:48:11.694Z,0.80
2019-03-26T07:50:40.434Z,0.40
2019-03-26T07:53:09.153Z,0.23
2019-03-26T07:55:38.618Z,0.40
2019-03-26T07:58:07.423Z,0.53
2019-03-26T08:00:37.417Z,0.43
2019-03-26T08:03:06.773Z,0.23
2019-03-26T08:05:35.519Z,0.27
2019-03-26T08:08:04.353Z,0.50
2019-03-26T08:10:33.074Z,0.60
2019-03-26T08:13:01.866Z,0.17
2019-03-26T08:15:30.737Z,0.20
2019-03-26T08:17:59.465Z,0.37
2019-03-26T08:20:28.181Z,0.67
2019-03-26T08:22:56.950Z,0.40
2019-03-26T08:25:25.746Z,0.20
2019-03-26T08:27:55.509Z,0.30
2019-03-26T08:30:24.269Z,0.50
2019-03-26T08:32:52.985Z,0.40
2019-03-26T08:35:21.704Z,0.30
2019-03-26T08:37:50.517Z,0.30
2019-03-26T08:40:19.242Z,0.23
2019-03-26T08:42:48.029Z,0.30
2019-03-26T08:45:17.004Z,0.40
2019-03-26T08:47:45.801Z,0.40
2019-03-26T08:50:14.770Z,0.50
2019-03-26T08:52:43.513Z,0.23
2019-03-26T08:55:12.550Z,0.20
2019-03-26T08:57:41.419Z,0.50
2019-03-26T09:00:12.550Z,0.20
2019-03-26T09:02:41.733Z,0.20
2019-03-26T09:05:10.485Z,0.20
2019-03-26T09:07:39.219Z,0.30
2019-03-26T09:10:10.241Z,0.30
2019-03-26T09:12:39.666Z,0.10
2019-03-26T09:15:14.158Z,0.30
2019-03-26T09:17:44.213Z,0.13
2019-03-26T09:20:12.609Z,0.20
2019-03-26T09:22:41.392Z,1.87
2019-03-26T09:25:10.514Z,0.40
2019-03-26T09:27:39.494Z,0.23
2019-03-26T09:30:10.910Z,0.53
2019-03-26T09:32:40.032Z,0.20
2019-03-26T09:35:09.225Z,0.20
2019-03-26T09:37:37.981Z,0.30
2019-03-26T09:40:08.050Z,0.10
2019-03-26T09:42:37.079Z,0.20
2019-03-26T09:45:10.593Z,0.30
2019-03-26T09:47:39.618Z,0.10
2019-03-26T09:50:11.018Z,0.40
2019-03-26T09:52:39.965Z,0.30
2019-03-26T09:55:09.484Z,0.30
2019-03-26T09:57:38.322Z,0.40
2019-03-26T10:00:11.683Z,0.20
2019-03-26T10:02:43.032Z,0.30
2019-03-26T10:05:11.021Z,0.20
2019-03-26T10:07:39.747Z,0.10
2019-03-26T10:10:09.670Z,0.30
2019-03-26T10:12:38.417Z,0.20
2019-03-26T10:15:07.980Z,0.30
2019-03-26T10:17:37.177Z,0.30
2019-03-26T10:20:07.432Z,0.20
2019-03-26T10:22:39.828Z,0.10
2019-03-26T10:25:10.890Z,0.20
2019-03-26T10:27:39.666Z,0.10
2019-03-26T10:30:10.568Z,0.43
2019-03-26T10:32:39.392Z,0.20
2019-03-26T10:35:08.348Z,0.10
2019-03-26T10:37:37.068Z,0.10
2019-03-26T10:40:07.292Z,0.20
2019-03-26T10:42:36.041Z,0.10
2019-03-26T10:45:06.774Z,0.20
2019-03-26T10:47:35.498Z,0.10
2019-03-26T10:50:05.749Z,0.10
2019-03-26T10:52:34.635Z,0.30
2019-03-26T10:55:04.002Z,0.10
2019-03-26T10:57:32.875Z,0.10
2019-03-26T11:00:01.596Z,0.10
2019-03-26T11:02:30.404Z,0.20
2019-03-26T11:04:59.165Z,0.20
2019-03-26T11:07:27.890Z,0.10
2019-03-26T11:09:56.666Z,0.10
2019-03-26T11:12:25.417Z,0.40
2019-03-26T11:14:54.154Z,0.10
2019-03-26T11:17:22.877Z,0.17
2019-03-26T11:19:51.647Z,0.10
2019-03-26T11:22:20.438Z,0.10
2019-03-26T11:24:49.172Z,0.10
2019-03-26T11:27:19.321Z,0.00
2019-03-26T11:29:48.025Z,0.00
2019-03-26T11:32:16.828Z,0.10
2019-03-26T11:34:45.569Z,0.17
2019-03-26T11:37:14.297Z,0.10
2019-03-26T11:39:43.032Z,0.07
2019-03-26T11:42:11.783Z,0.10
2019-03-26T11:44:40.519Z,0.50
2019-03-26T11:47:09.242Z,0.20
2019-03-26T11:49:38.001Z,0.07
2019-03-26T11:52:06.729Z,0.20
2019-03-26T11:54:35.449Z,0.10
2019-03-26T11:57:04.210Z,0.10
2019-03-26T11:59:32.936Z,0.10
2019-03-26T12:02:01.729Z,0.10
2019-03-26T12:04:30.485Z,0.27
2019-03-26T12:06:59.214Z,0.10
2019-03-26T12:09:27.939Z,0.30
2019-03-26T12:11:56.685Z,0.20
2019-03-26T12:14:25.417Z,0.20
2019-03-26T12:16:54.249Z,0.10
2019-03-26T12:19:23.023Z,0.10
2019-03-26T12:21:51.823Z,0.20
2019-03-26T12:24:20.568Z,0.10
2019-03-26T12:26:49.294Z,0.20
2019-03-26T12:29:18.018Z,0.20
2019-03-26T12:31:46.793Z,0.20
2019-03-26T12:34:15.713Z,0.33
2019-03-26T12:36:44.545Z,0.20
2019-03-26T12:39:13.293Z,0.20
2019-03-26T12:41:44.024Z,0.40
2019-03-26T12:44:12.805Z,0.30
2019-03-26T12:46:41.554Z,0.07
2019-03-26T12:49:10.283Z,0.10
2019-03-26T12:51:39.439Z,0.20
2019-03-26T12:54:08.436Z,0.10
2019-03-26T12:56:37.158Z,0.10
2019-03-26T12:59:05.986Z,0.20
2019-03-26T13:01:34.732Z,0.27
2019-03-26T13:04:12.413Z,0.10
2019-03-26T13:06:33.826Z,0.00
2019-03-26T13:09:02.917Z,0.20
2019-03-26T13:11:31.725Z,0.10
2019-03-26T13:14:00.445Z,0.07
2019-03-26T13:16:29.201Z,0.20
2019-03-26T13:18:58.014Z,0.10
2019-03-26T13:21:26.737Z,0.00
2019-03-26T13:23:55.490Z,0.10
2019-03-26T13:26:24.285Z,0.10
2019-03-26T13:28:53.017Z,0.20
2019-03-26T13:31:21.766Z,0.10
2019-03-26T13:33:50.494Z,0.10
2019-03-26T13:36:19.333Z,0.10
2019-03-26T13:38:48.086Z,0.10
2019-03-26T13:41:16.811Z,0.20
2019-03-26T13:43:45.535Z,0.10
2019-03-26T13:46:14.318Z,0.10
2019-03-26T13:48:43.041Z,0.20
2019-03-26T13:51:11.771Z,0.20
2019-03-26T13:53:40.544Z,0.20
2019-03-26T13:56:09.259Z,0.10
2019-03-26T13:58:37.982Z,0.47
2019-03-26T14:01:06.737Z,0.00
2019-03-26T14:03:35.846Z,0.10
2019-03-26T14:06:04.570Z,0.10
2019-03-26T14:08:33.322Z,0.10
2019-03-26T14:11:02.049Z,0.20
2019-03-26T14:13:30.769Z,0.10
2019-03-26T14:15:59.521Z,0.20
2019-03-26T14:18:28.242Z,0.10
2019-03-26T14:20:56.966Z,0.27
2019-03-26T14:23:25.832Z,0.40
2019-03-26T14:25:54.551Z,0.30
2019-03-26T14:28:23.273Z,0.30
2019-03-26T14:30:52.027Z,0.10
2019-03-26T14:33:20.748Z,0.20
2019-03-26T14:35:49.466Z,0.27
2019-03-26T14:38:18.294Z,0.43
2019-03-26T14:40:54.565Z,0.50
2019-03-26T14:43:17.390Z,0.67
2019-03-26T14:45:46.147Z,0.60
2019-03-26T14:48:14.868Z,0.47
2019-03-26T14:50:43.602Z,0.37
2019-03-26T14:53:12.371Z,0.40
2019-03-26T14:55:41.094Z,0.43
2019-03-26T14:58:09.875Z,0.47
2019-03-26T15:00:38.569Z,0.37
2019-03-26T15:03:07.303Z,0.47
2019-03-26T15:05:36.026Z,0.40
2019-03-26T15:08:04.953Z,0.53
2019-03-26T15:10:33.821Z,0.93
2019-03-26T15:13:02.546Z,0.47
2019-03-26T15:15:31.302Z,0.90
2019-03-26T15:18:00.030Z,1.27
2019-03-26T15:20:29.103Z,1.60
2019-03-26T15:22:58.302Z,0.83
2019-03-26T15:25:27.130Z,1.10
2019-03-26T15:27:55.857Z,1.10
2019-03-26T15:30:24.617Z,1.33
2019-03-26T15:32:53.349Z,1.10
2019-03-26T15:35:22.074Z,1.20
2019-03-26T15:37:50.820Z,0.73
2019-03-26T15:40:19.661Z,2.20
2019-03-26T15:42:48.437Z,1.77
2019-03-26T15:45:17.712Z,1.87
2019-03-26T15:47:46.433Z,1.27
2019-03-26T15:50:18.093Z,1.63
2019-03-26T15:52:46.851Z,0.93
2019-03-26T15:55:15.577Z,1.40
2019-03-26T15:57:44.450Z,1.00
2019-03-26T16:00:14.702Z,1.10
2019-03-26T16:02:43.449Z,0.97
2019-03-26T16:05:12.178Z,0.53
2019-03-26T16:07:40.969Z,0.93
2019-03-26T16:10:09.991Z,0.63
2019-03-26T16:12:41.223Z,0.80
2019-03-26T16:15:09.611Z,0.80
2019-03-26T16:17:38.338Z,0.70
2019-03-26T16:20:08.554Z,0.60
2019-03-26T16:22:37.295Z,1.20
2019-03-26T16:25:06.519Z,1.00
2019-03-26T16:27:35.321Z,0.70
2019-03-26T16:30:06.368Z,1.17
2019-03-26T16:32:35.090Z,1.00
2019-03-26T16:35:04.799Z,1.60
2019-03-26T16:37:33.547Z,0.60
2019-03-26T16:40:02.274Z,0.80
2019-03-26T16:42:31.024Z,0.60
2019-03-26T16:44:59.772Z,0.40
2019-03-26T16:47:29.076Z,0.63
2019-03-26T16:49:57.794Z,0.87
2019-03-26T16:52:26.843Z,0.87
2019-03-26T16:54:55.576Z,1.10
2019-03-26T16:57:24.362Z,0.53
2019-03-26T16:59:53.110Z,0.83
2019-03-26T17:02:21.833Z,0.90
2019-03-26T17:04:50.563Z,0.80
2019-03-26T17:07:19.309Z,0.67
2019-03-26T17:09:48.094Z,0.40
2019-03-26T17:12:16.823Z,0.40
2019-03-26T17:14:45.581Z,0.67
2019-03-26T17:17:14.380Z,0.73
2019-03-26T17:19:43.106Z,0.50
2019-03-26T17:22:11.858Z,0.70
2019-03-26T17:24:40.590Z,0.63
2019-03-26T17:27:09.314Z,0.80
2019-03-26T17:29:38.064Z,0.53
2019-03-26T17:32:06.867Z,0.70
2019-03-26T17:34:35.665Z,0.73
2019-03-26T17:37:04.485Z,0.80
2019-03-26T17:39:33.211Z,0.87
2019-03-26T17:42:02.006Z,1.00
2019-03-26T17:44:30.758Z,0.73
2019-03-26T17:46:59.497Z,1.00
2019-03-26T17:49:28.292Z,1.40
2019-03-26T17:51:57.049Z,0.70
2019-03-26T17:54:25.767Z,0.90
2019-03-26T17:56:54.570Z,1.00
2019-03-26T17:59:23.395Z,1.07
2019-03-26T18:01:54.410Z,1.20
2019-03-26T18:04:22.658Z,1.30
2019-03-26T18:06:51.401Z,1.70
2019-03-26T18:09:20.125Z,1.00
2019-03-26T18:11:48.861Z,1.03
2019-03-26T18:14:17.640Z,1.00
2019-03-26T18:16:46.361Z,1.07
2019-03-26T18:19:15.091Z,1.27
2019-03-26T18:21:51.301Z,1.10
2019-03-26T18:24:14.256Z,0.90
2019-03-26T18:26:43.059Z,1.33
2019-03-26T18:29:11.902Z,1.03
2019-03-26T18:31:40.635Z,1.00
2019-03-26T18:34:09.372Z,1.43
2019-03-26T18:36:38.129Z,0.70
2019-03-26T18:39:08.279Z,0.90
2019-03-26T18:41:37.077Z,1.20
2019-03-26T18:44:05.832Z,0.60
2019-03-26T18:46:34.550Z,0.70
2019-03-26T18:49:03.281Z,0.67
2019-03-26T18:51:32.231Z,0.57
2019-03-26T18:54:01.378Z,0.73
2019-03-26T18:56:30.110Z,0.87
2019-03-26T18:58:58.898Z,1.50
2019-03-26T19:01:27.621Z,0.83
2019-03-26T19:03:56.350Z,1.00
2019-03-26T19:06:25.159Z,0.60
2019-03-26T19:08:53.999Z,0.80
2019-03-26T19:11:22.646Z,0.60
2019-03-26T19:13:51.418Z,0.40
2019-03-26T19:16:20.434Z,0.60
2019-03-26T19:18:49.245Z,0.53
2019-03-26T19:21:17.998Z,0.70
2019-03-26T19:23:46.725Z,0.70
2019-03-26T19:26:15.527Z,0.57
2019-03-26T19:28:44.277Z,0.40
2019-03-26T19:31:13.002Z,0.57
2019-03-26T19:33:41.725Z,0.60
2019-03-26T19:36:11.522Z,0.83
2019-03-26T19:38:40.226Z,0.93
2019-03-26T19:41:08.953Z,0.90
2019-03-26T19:43:37.712Z,1.20
2019-03-26T19:46:06.437Z,1.27
2019-03-26T19:48:35.169Z,0.87
2019-03-26T19:51:04.286Z,1.00
2019-03-26T19:53:33.012Z,0.80
2019-03-26T19:56:01.730Z,1.03
2019-03-26T19:58:30.494Z,0.70
2019-03-26T20:00:59.220Z,0.97
2019-03-26T20:03:28.061Z,1.10
2019-03-26T20:05:56.820Z,0.80
2019-03-26T20:08:25.558Z,0.47
2019-03-26T20:10:54.285Z,0.90
2019-03-26T20:13:24.647Z,0.60
2019-03-26T20:15:53.515Z,0.40
2019-03-26T20:18:22.239Z,0.43
2019-03-26T20:20:51.045Z,1.40
2019-03-26T20:23:19.777Z,0.70
2019-03-26T20:25:48.509Z,0.40
2019-03-26T20:28:17.258Z,0.30
2019-03-26T20:30:45.994Z,0.40
2019-03-26T20:33:14.728Z,0.60
2019-03-26T20:35:43.475Z,0.40
2019-03-26T20:38:12.222Z,0.50
2019-03-26T20:40:41.006Z,0.50
2019-03-26T20:43:09.728Z,0.23
2019-03-26T20:45:38.477Z,0.50
2019-03-26T20:48:07.291Z,0.90
2019-03-26T20:50:36.023Z,0.70
2019-03-26T20:53:04.992Z,0.67
2019-03-26T20:55:35.112Z,0.70
2019-03-26T20:58:04.166Z,0.80
2019-03-26T21:00:35.427Z,0.60
2019-03-26T21:03:04.351Z,0.40
2019-03-26T21:05:34.714Z,0.67
2019-03-26T21:08:03.478Z,0.83
2019-03-26T21:10:32.276Z,0.87
2019-03-26T21:13:01.002Z,0.83
2019-03-26T21:15:29.826Z,0.60
2019-03-26T21:17:58.627Z,0.50
2019-03-26T21:20:27.449Z,0.50
2019-03-26T21:22:56.203Z,0.30
2019-03-26T21:25:24.989Z,0.33
2019-03-26T21:27:53.813Z,0.77
2019-03-26T21:30:22.685Z,0.70
2019-03-26T21:32:51.390Z,0.53
2019-03-26T21:35:20.120Z,0.50
2019-03-26T21:37:48.886Z,0.70
2019-03-26T21:40:18.818Z,0.53
2019-03-26T21:42:47.546Z,0.57
2019-03-26T21:45:19.237Z,0.37
2019-03-26T21:47:47.978Z,0.47
2019-03-26T21:50:16.734Z,0.60
2019-03-26T21:52:45.488Z,0.37
2019-03-26T21:55:14.207Z,0.70
2019-03-26T21:57:43.004Z,0.50
2019-03-26T22:00:13.539Z,0.60
2019-03-26T22:02:42.266Z,0.47
2019-03-26T22:05:11.786Z,0.83
2019-03-26T22:07:40.533Z,0.30
2019-03-26T22:10:10.836Z,0.50
2019-03-26T22:12:39.581Z,0.70
2019-03-26T22:15:13.630Z,0.67
2019-03-26T22:17:42.354Z,0.30
2019-03-26T22:20:11.474Z,0.57
2019-03-26T22:22:40.221Z,0.33
2019-03-26T22:25:10.148Z,0.80
2019-03-26T22:27:38.873Z,0.60
2019-03-26T22:30:09.743Z,0.57
2019-03-26T22:32:38.578Z,0.60
2019-03-26T22:35:08.896Z,0.70
2019-03-26T22:37:37.659Z,0.73
2019-03-26T22:40:10.414Z,1.00
2019-03-26T22:42:39.161Z,0.30
2019-03-26T22:45:10.633Z,0.80
2019-03-26T22:47:39.731Z,0.77
2019-03-26T22:50:09.460Z,0.60
2019-03-26T22:52:38.445Z,0.90
2019-03-26T22:55:09.557Z,1.10
2019-03-26T22:57:38.274Z,0.50
2019-03-26T23:00:15.755Z,0.60
2019-03-26T23:02:44.533Z,0.40
2019-03-26T23:05:14.364Z,0.63
2019-03-26T23:07:43.313Z,0.50
2019-03-26T23:10:13.641Z,0.50
2019-03-26T23:12:42.370Z,0.50
2019-03-26T23:15:16.749Z,0.57
2019-03-26T23:17:45.484Z,0.50
2019-03-26T23:20:14.206Z,0.90
2019-03-26T23:22:42.961Z,0.80
2019-03-26T23:25:11.886Z,0.43
2019-03-26T23:27:40.614Z,0.77
2019-03-26T23:30:10.275Z,0.63
2019-03-26T23:32:38.999Z,0.43
2019-03-26T23:35:07.893Z,0.43
2019-03-26T23:37:36.651Z,0.30
2019-03-26T23:40:05.878Z,0.63
2019-03-26T23:42:34.674Z,0.40
2019-03-26T23:45:04.522Z,0.30
2019-03-26T23:47:33.250Z,0.83
2019-03-26T23:50:01.981Z,0.80
2019-03-26T23:52:30.725Z,1.03
2019-03-26T23:54:59.449Z,0.70
2019-03-26T23:57:28.178Z,0.47
2019-03-26T23:59:56.925Z,0.50
